sensor_id;sensor_type;location;lat;lon;timestamp;pressure;altitude;pressure_sealevel;temperature;humidity
77897;BME280;67092;64.282;21.056;2023-03-03T00:00:19;100217.35;;;20.45;21.26
77897;BME280;67092;64.282;21.056;2023-03-03T00:02:45;100217.41;;;20.09;21.37
77897;BME280;67092;64.282;21.056;2023-03-03T00:05:11;100211.72;;;20.99;21.03
77897;BME280;67092;64.282;21.056;2023-03-03T00:07:36;100211.68;;;20.39;21.11
77897;BME280;67092;64.282;21.056;2023-03-03T00:10:02;100210.89;;;20.39;21.11
77897;BME280;67092;64.282;21.056;2023-03-03T00:12:29;100210.03;;;20.78;20.95
77897;BME280;67092;64.282;21.056;2023-03-03T00:14:54;100215.69;;;20.42;21.54
77897;BME280;67092;64.282;21.056;2023-03-03T00:17:22;100213.16;;;20.16;21.52
77897;BME280;67092;64.282;21.056;2023-03-03T00:19:44;100208.18;;;20.67;21.13
77897;BME280;67092;64.282;21.056;2023-03-03T00:22:27;100203.97;;;20.56;21.48
77897;BME280;67092;64.282;21.056;2023-03-03T00:24:36;100202.64;;;20.72;21.40
77897;BME280;67092;64.282;21.056;2023-03-03T00:27:13;100201.99;;;20.26;21.52
77897;BME280;67092;64.282;21.056;2023-03-03T00:29:30;100207.74;;;20.63;21.17
77897;BME280;67092;64.282;21.056;2023-03-03T00:31:53;100208.71;;;20.61;21.20
77897;BME280;67092;64.282;21.056;2023-03-03T00:34:24;100211.61;;;20.70;21.10
77897;BME280;67092;64.282;21.056;2023-03-03T00:36:44;100210.70;;;20.63;20.99
77897;BME280;67092;64.282;21.056;2023-03-03T00:39:18;100214.84;;;20.25;21.52
77897;BME280;67092;64.282;21.056;2023-03-03T00:41:35;100208.85;;;20.62;21.43
77897;BME280;67092;64.282;21.056;2023-03-03T00:46:28;100210.22;;;20.91;20.99
77897;BME280;67092;64.282;21.056;2023-03-03T00:48:52;100213.90;;;20.62;21.24
77897;BME280;67092;64.282;21.056;2023-03-03T00:51:26;100211.61;;;20.59;21.13
77897;BME280;67092;64.282;21.056;2023-03-03T00:53:43;100207.33;;;20.99;20.98
77897;BME280;67092;64.282;21.056;2023-03-03T00:56:09;100207.83;;;20.59;20.94
77897;BME280;67092;64.282;21.056;2023-03-03T00:58:34;100206.85;;;20.36;21.16
77897;BME280;67092;64.282;21.056;2023-03-03T01:01:00;100210.42;;;20.60;21.18
77897;BME280;67092;64.282;21.056;2023-03-03T01:03:26;100209.33;;;20.76;21.07
77897;BME280;67092;64.282;21.056;2023-03-03T01:05:53;100213.50;;;19.47;21.03
77897;BME280;67092;64.282;21.056;2023-03-03T01:08:17;100214.78;;;20.95;20.54
77897;BME280;67092;64.282;21.056;2023-03-03T01:10:46;100218.01;;;20.78;20.90
77897;BME280;67092;64.282;21.056;2023-03-03T01:13:09;100217.46;;;20.42;21.01
77897;BME280;67092;64.282;21.056;2023-03-03T01:15:34;100214.88;;;20.89;21.09
77897;BME280;67092;64.282;21.056;2023-03-03T01:17:59;100215.07;;;20.26;21.44
77897;BME280;67092;64.282;21.056;2023-03-03T01:20:25;100215.72;;;20.62;21.30
77897;BME280;67092;64.282;21.056;2023-03-03T01:22:50;100208.97;;;20.26;21.25
77897;BME280;67092;64.282;21.056;2023-03-03T01:25:16;100208.66;;;20.31;21.30
77897;BME280;67092;64.282;21.056;2023-03-03T01:27:42;100208.93;;;20.39;21.20
77897;BME280;67092;64.282;21.056;2023-03-03T01:30:09;100218.60;;;20.14;21.33
77897;BME280;67092;64.282;21.056;2023-03-03T01:32:33;100213.70;;;20.44;21.12
77897;BME280;67092;64.282;21.056;2023-03-03T01:34:59;100216.55;;;20.74;21.14
77897;BME280;67092;64.282;21.056;2023-03-03T01:37:24;100212.72;;;20.73;21.00
77897;BME280;67092;64.282;21.056;2023-03-03T01:39:51;100212.14;;;20.86;20.91
77897;BME280;67092;64.282;21.056;2023-03-03T01:42:16;100211.78;;;20.43;21.02
77897;BME280;67092;64.282;21.056;2023-03-03T01:44:41;100211.38;;;20.85;20.92
77897;BME280;67092;64.282;21.056;2023-03-03T01:47:10;100208.29;;;20.71;21.04
77897;BME280;67092;64.282;21.056;2023-03-03T01:49:35;100209.46;;;20.00;21.20
77897;BME280;67092;64.282;21.056;2023-03-03T01:52:01;100203.87;;;21.09;20.52
77897;BME280;67092;64.282;21.056;2023-03-03T01:54:28;100208.67;;;20.56;20.94
77897;BME280;67092;64.282;21.056;2023-03-03T01:56:51;100204.92;;;20.48;21.23
77897;BME280;67092;64.282;21.056;2023-03-03T01:59:19;100201.93;;;20.11;21.12
77897;BME280;67092;64.282;21.056;2023-03-03T02:01:41;100205.58;;;20.45;20.87
77897;BME280;67092;64.282;21.056;2023-03-03T02:04:07;100205.44;;;20.18;21.24
77897;BME280;67092;64.282;21.056;2023-03-03T02:06:34;100200.32;;;20.35;21.10
77897;BME280;67092;64.282;21.056;2023-03-03T02:09:02;100198.72;;;20.15;21.23
77897;BME280;67092;64.282;21.056;2023-03-03T02:11:23;100205.51;;;20.13;21.21
77897;BME280;67092;64.282;21.056;2023-03-03T02:13:49;100199.62;;;20.36;21.25
77897;BME280;67092;64.282;21.056;2023-03-03T02:16:14;100197.16;;;20.37;21.02
77897;BME280;67092;64.282;21.056;2023-03-03T02:18:40;100198.78;;;20.41;20.79
77897;BME280;67092;64.282;21.056;2023-03-03T02:21:10;100198.33;;;19.82;21.24
77897;BME280;67092;64.282;21.056;2023-03-03T02:23:37;100187.91;;;20.18;20.95
77897;BME280;67092;64.282;21.056;2023-03-03T02:26:05;100188.53;;;20.41;21.13
77897;BME280;67092;64.282;21.056;2023-03-03T02:28:24;100186.43;;;20.43;20.92
77897;BME280;67092;64.282;21.056;2023-03-03T02:30:48;100182.60;;;20.52;21.01
77897;BME280;67092;64.282;21.056;2023-03-03T02:33:14;100184.90;;;20.67;20.70
77897;BME280;67092;64.282;21.056;2023-03-03T02:35:40;100178.06;;;20.21;21.03
77897;BME280;67092;64.282;21.056;2023-03-03T02:38:14;100175.30;;;20.54;20.75
77897;BME280;67092;64.282;21.056;2023-03-03T02:40:35;100180.25;;;20.40;20.92
77897;BME280;67092;64.282;21.056;2023-03-03T02:42:57;100172.18;;;20.39;20.91
77897;BME280;67092;64.282;21.056;2023-03-03T02:45:22;100175.22;;;20.77;20.60
77897;BME280;67092;64.282;21.056;2023-03-03T02:47:49;100166.68;;;20.57;20.97
77897;BME280;67092;64.282;21.056;2023-03-03T02:50:13;100167.18;;;20.78;20.61
77897;BME280;67092;64.282;21.056;2023-03-03T02:52:39;100168.78;;;20.62;20.97
77897;BME280;67092;64.282;21.056;2023-03-03T02:55:05;100169.63;;;20.32;21.05
77897;BME280;67092;64.282;21.056;2023-03-03T02:57:30;100170.96;;;20.68;20.90
77897;BME280;67092;64.282;21.056;2023-03-03T02:59:55;100166.04;;;20.45;20.89
77897;BME280;67092;64.282;21.056;2023-03-03T03:02:21;100168.82;;;20.14;21.09
77897;BME280;67092;64.282;21.056;2023-03-03T03:04:47;100160.42;;;20.54;20.75
77897;BME280;67092;64.282;21.056;2023-03-03T03:07:12;100160.86;;;20.31;20.92
77897;BME280;67092;64.282;21.056;2023-03-03T03:09:38;100160.21;;;19.98;21.24
77897;BME280;67092;64.282;21.056;2023-03-03T03:12:04;100161.68;;;20.08;21.00
77897;BME280;67092;64.282;21.056;2023-03-03T03:14:29;100159.68;;;20.26;21.01
77897;BME280;67092;64.282;21.056;2023-03-03T03:16:55;100156.97;;;20.12;20.88
77897;BME280;67092;64.282;21.056;2023-03-03T03:19:21;100153.10;;;20.31;20.95
77897;BME280;67092;64.282;21.056;2023-03-03T03:21:46;100151.86;;;20.42;20.65
77897;BME280;67092;64.282;21.056;2023-03-03T03:24:11;100154.05;;;20.51;20.80
77897;BME280;67092;64.282;21.056;2023-03-03T03:26:37;100148.89;;;20.88;20.68
77897;BME280;67092;64.282;21.056;2023-03-03T03:29:03;100146.73;;;20.11;21.11
77897;BME280;67092;64.282;21.056;2023-03-03T03:31:28;100142.77;;;20.56;20.74
77897;BME280;67092;64.282;21.056;2023-03-03T03:33:54;100142.20;;;20.39;20.90
77897;BME280;67092;64.282;21.056;2023-03-03T03:36:20;100136.71;;;20.21;21.03
77897;BME280;67092;64.282;21.056;2023-03-03T03:38:45;100132.94;;;20.98;20.61
77897;BME280;67092;64.282;21.056;2023-03-03T03:41:11;100127.78;;;20.29;20.96
77897;BME280;67092;64.282;21.056;2023-03-03T03:43:37;100129.45;;;19.95;21.24
77897;BME280;67092;64.282;21.056;2023-03-03T03:46:02;100126.37;;;20.57;20.95
77897;BME280;67092;64.282;21.056;2023-03-03T03:48:28;100129.06;;;20.64;20.92
77897;BME280;67092;64.282;21.056;2023-03-03T03:50:54;100126.54;;;20.49;21.04
77897;BME280;67092;64.282;21.056;2023-03-03T03:53:19;100126.17;;;20.35;21.03
77897;BME280;67092;64.282;21.056;2023-03-03T03:55:45;100124.06;;;20.53;20.81
77897;BME280;67092;64.282;21.056;2023-03-03T03:58:12;100120.58;;;20.17;21.11
77897;BME280;67092;64.282;21.056;2023-03-03T04:00:36;100115.52;;;20.63;20.98
77897;BME280;67092;64.282;21.056;2023-03-03T04:03:02;100114.62;;;20.56;20.84
77897;BME280;67092;64.282;21.056;2023-03-03T04:05:27;100110.53;;;20.18;21.16
77897;BME280;67092;64.282;21.056;2023-03-03T04:07:53;100102.72;;;20.53;20.91
77897;BME280;67092;64.282;21.056;2023-03-03T04:10:18;100100.62;;;20.65;20.91
77897;BME280;67092;64.282;21.056;2023-03-03T04:12:44;100097.86;;;20.06;21.19
77897;BME280;67092;64.282;21.056;2023-03-03T04:15:11;100099.05;;;20.06;21.21
77897;BME280;67092;64.282;21.056;2023-03-03T04:17:35;100096.70;;;20.27;21.27
77897;BME280;67092;64.282;21.056;2023-03-03T04:20:01;100087.67;;;20.44;21.10
77897;BME280;67092;64.282;21.056;2023-03-03T04:22:27;100092.21;;;20.46;21.08
77897;BME280;67092;64.282;21.056;2023-03-03T04:24:52;100088.23;;;20.63;20.91
77897;BME280;67092;64.282;21.056;2023-03-03T04:27:18;100084.90;;;20.24;21.33
77897;BME280;67092;64.282;21.056;2023-03-03T04:29:43;100081.43;;;20.25;21.27
77897;BME280;67092;64.282;21.056;2023-03-03T04:32:09;100080.84;;;20.17;21.11
77897;BME280;67092;64.282;21.056;2023-03-03T04:34:35;100072.75;;;20.34;21.20
77897;BME280;67092;64.282;21.056;2023-03-03T04:37:00;100065.62;;;20.43;20.94
77897;BME280;67092;64.282;21.056;2023-03-03T04:39:27;100071.38;;;20.46;21.11
77897;BME280;67092;64.282;21.056;2023-03-03T04:41:52;100066.70;;;20.63;20.77
77897;BME280;67092;64.282;21.056;2023-03-03T04:44:17;100068.98;;;20.63;20.79
77897;BME280;67092;64.282;21.056;2023-03-03T04:46:43;100063.69;;;20.63;20.98
77897;BME280;67092;64.282;21.056;2023-03-03T04:49:08;100063.42;;;20.68;20.79
77897;BME280;67092;64.282;21.056;2023-03-03T04:51:34;100065.09;;;20.52;21.03
77897;BME280;67092;64.282;21.056;2023-03-03T04:54:00;100066.47;;;20.35;21.09
77897;BME280;67092;64.282;21.056;2023-03-03T04:56:25;100060.98;;;20.73;20.92
77897;BME280;67092;64.282;21.056;2023-03-03T04:58:51;100061.52;;;20.34;21.27
77897;BME280;67092;64.282;21.056;2023-03-03T05:01:17;100059.58;;;20.15;21.06
77897;BME280;67092;64.282;21.056;2023-03-03T05:03:42;100060.28;;;20.70;20.98
77897;BME280;67092;64.282;21.056;2023-03-03T05:06:08;100059.84;;;20.55;20.90
77897;BME280;67092;64.282;21.056;2023-03-03T05:08:33;100058.61;;;20.55;21.11
77897;BME280;67092;64.282;21.056;2023-03-03T05:10:59;100056.78;;;19.90;21.22
77897;BME280;67092;64.282;21.056;2023-03-03T05:13:25;100051.67;;;20.60;21.18
77897;BME280;67092;64.282;21.056;2023-03-03T05:15:50;100050.92;;;20.55;21.19
77897;BME280;67092;64.282;21.056;2023-03-03T05:18:17;100048.01;;;20.81;21.16
77897;BME280;67092;64.282;21.056;2023-03-03T05:20:41;100044.21;;;20.52;21.27
77897;BME280;67092;64.282;21.056;2023-03-03T05:23:07;100036.60;;;20.60;21.12
77897;BME280;67092;64.282;21.056;2023-03-03T05:25:33;100031.64;;;20.47;21.27
77897;BME280;67092;64.282;21.056;2023-03-03T05:27:58;100029.58;;;20.54;21.41
77897;BME280;67092;64.282;21.056;2023-03-03T05:30:24;100032.52;;;20.84;21.19
77897;BME280;67092;64.282;21.056;2023-03-03T05:32:49;100020.99;;;20.25;21.67
77897;BME280;67092;64.282;21.056;2023-03-03T05:35:15;100016.82;;;20.63;21.21
77897;BME280;67092;64.282;21.056;2023-03-03T05:37:41;100006.01;;;20.34;21.43
77897;BME280;67092;64.282;21.056;2023-03-03T05:40:08;100005.98;;;20.17;21.33
77897;BME280;67092;64.282;21.056;2023-03-03T05:42:32;100000.63;;;20.32;21.15
77897;BME280;67092;64.282;21.056;2023-03-03T05:44:57;99997.23;;;20.78;20.98
77897;BME280;67092;64.282;21.056;2023-03-03T05:47:23;99989.34;;;20.05;21.31
77897;BME280;67092;64.282;21.056;2023-03-03T05:49:49;99989.24;;;20.15;21.18
77897;BME280;67092;64.282;21.056;2023-03-03T05:52:14;99985.96;;;20.33;21.03
77897;BME280;67092;64.282;21.056;2023-03-03T05:54:40;99976.37;;;20.19;21.12
77897;BME280;67092;64.282;21.056;2023-03-03T05:57:05;99967.74;;;20.54;20.82
77897;BME280;67092;64.282;21.056;2023-03-03T05:59:31;99971.23;;;20.21;21.04
77897;BME280;67092;64.282;21.056;2023-03-03T06:01:57;99963.35;;;20.19;20.82
77897;BME280;67092;64.282;21.056;2023-03-03T06:04:22;99958.64;;;20.22;21.17
77897;BME280;67092;64.282;21.056;2023-03-03T06:06:48;99953.73;;;20.17;21.18
77897;BME280;67092;64.282;21.056;2023-03-03T06:09:14;99950.39;;;20.42;20.94
77897;BME280;67092;64.282;21.056;2023-03-03T06:11:39;99940.93;;;20.66;20.70
77897;BME280;67092;64.282;21.056;2023-03-03T06:14:05;99930.56;;;20.35;20.73
77897;BME280;67092;64.282;21.056;2023-03-03T06:16:31;99924.40;;;20.26;20.81
77897;BME280;67092;64.282;21.056;2023-03-03T06:18:56;99921.74;;;20.45;20.66
77897;BME280;67092;64.282;21.056;2023-03-03T06:21:22;99912.66;;;20.23;20.81
77897;BME280;67092;64.282;21.056;2023-03-03T06:23:47;99906.16;;;20.30;20.53
77897;BME280;67092;64.282;21.056;2023-03-03T06:26:13;99899.61;;;20.16;20.81
77897;BME280;67092;64.282;21.056;2023-03-03T06:28:39;99890.97;;;20.72;20.54
77897;BME280;67092;64.282;21.056;2023-03-03T06:31:04;99885.13;;;20.50;20.67
77897;BME280;67092;64.282;21.056;2023-03-03T06:33:30;99879.36;;;20.39;20.80
77897;BME280;67092;64.282;21.056;2023-03-03T06:35:56;99872.02;;;20.65;20.58
77897;BME280;67092;64.282;21.056;2023-03-03T06:38:21;99865.30;;;20.32;20.61
77897;BME280;67092;64.282;21.056;2023-03-03T06:40:47;99870.56;;;20.62;20.35
77897;BME280;67092;64.282;21.056;2023-03-03T06:43:13;99869.48;;;20.20;20.65
77897;BME280;67092;64.282;21.056;2023-03-03T06:45:38;99864.14;;;19.89;21.11
77897;BME280;67092;64.282;21.056;2023-03-03T06:48:04;99861.60;;;20.29;20.76
77897;BME280;67092;64.282;21.056;2023-03-03T06:50:29;99855.96;;;20.18;20.46
77897;BME280;67092;64.282;21.056;2023-03-03T06:53:01;99849.20;;;20.44;20.60
77897;BME280;67092;64.282;21.056;2023-03-03T06:55:22;99844.82;;;20.40;20.62
77897;BME280;67092;64.282;21.056;2023-03-03T06:57:46;99844.26;;;20.47;20.32
77897;BME280;67092;64.282;21.056;2023-03-03T07:00:16;99839.55;;;20.43;20.37
77897;BME280;67092;64.282;21.056;2023-03-03T07:02:37;99835.30;;;20.37;20.58
77897;BME280;67092;64.282;21.056;2023-03-03T07:05:08;99828.09;;;20.65;20.36
77897;BME280;67092;64.282;21.056;2023-03-03T07:07:29;99822.56;;;20.66;20.32
77897;BME280;67092;64.282;21.056;2023-03-03T07:09:56;99815.58;;;20.70;20.08
77897;BME280;67092;64.282;21.056;2023-03-03T07:12:22;99805.62;;;20.68;20.09
77897;BME280;67092;64.282;21.056;2023-03-03T07:14:47;99800.91;;;20.79;20.19
77897;BME280;67092;64.282;21.056;2023-03-03T07:17:16;99789.85;;;20.46;20.06
77897;BME280;67092;64.282;21.056;2023-03-03T07:19:37;99781.64;;;20.51;20.19
77897;BME280;67092;64.282;21.056;2023-03-03T07:22:13;99774.31;;;20.78;20.17
77897;BME280;67092;64.282;21.056;2023-03-03T07:24:29;99767.78;;;20.42;20.24
77897;BME280;67092;64.282;21.056;2023-03-03T07:26:57;99756.58;;;20.56;20.15
77897;BME280;67092;64.282;21.056;2023-03-03T07:29:23;99751.06;;;20.73;20.00
77897;BME280;67092;64.282;21.056;2023-03-03T07:31:47;99744.13;;;20.63;20.07
77897;BME280;67092;64.282;21.056;2023-03-03T07:34:18;99739.17;;;20.61;20.08
77897;BME280;67092;64.282;21.056;2023-03-03T07:36:36;99732.62;;;20.53;20.13
77897;BME280;67092;64.282;21.056;2023-03-03T07:39:13;99725.12;;;20.42;20.21
77897;BME280;67092;64.282;21.056;2023-03-03T07:41:29;99721.31;;;20.45;20.22
77897;BME280;67092;64.282;21.056;2023-03-03T07:44:03;99712.92;;;20.69;20.16
77897;BME280;67092;64.282;21.056;2023-03-03T07:46:25;99709.02;;;20.40;20.39
77897;BME280;67092;64.282;21.056;2023-03-03T07:48:45;99700.21;;;20.44;20.17
77897;BME280;67092;64.282;21.056;2023-03-03T07:51:15;99693.64;;;20.33;20.23
77897;BME280;67092;64.282;21.056;2023-03-03T07:53:36;99688.16;;;20.54;20.06
77897;BME280;67092;64.282;21.056;2023-03-03T07:56:01;99683.30;;;20.54;20.07
77897;BME280;67092;64.282;21.056;2023-03-03T07:58:35;99677.34;;;20.76;20.05
77897;BME280;67092;64.282;21.056;2023-03-03T08:03:19;99665.67;;;20.26;20.43
77897;BME280;67092;64.282;21.056;2023-03-03T08:05:46;99658.55;;;20.65;20.12
77897;BME280;67092;64.282;21.056;2023-03-03T08:08:24;99648.61;;;20.55;20.05
77897;BME280;67092;64.282;21.056;2023-03-03T08:10:40;99642.80;;;20.63;20.14
77897;BME280;67092;64.282;21.056;2023-03-03T08:13:08;99633.22;;;20.44;20.12
77897;BME280;67092;64.282;21.056;2023-03-03T08:15:30;99626.59;;;20.04;20.41
77897;BME280;67092;64.282;21.056;2023-03-03T08:17:53;99616.98;;;20.47;20.24
77897;BME280;67092;64.282;21.056;2023-03-03T08:22:43;99605.62;;;20.14;20.31
77897;BME280;67092;64.282;21.056;2023-03-03T08:25:09;99598.15;;;20.57;19.98
77897;BME280;67092;64.282;21.056;2023-03-03T08:27:35;99593.78;;;20.22;20.22
77897;BME280;67092;64.282;21.056;2023-03-03T08:30:00;99578.67;;;20.55;20.13
77897;BME280;67092;64.282;21.056;2023-03-03T08:32:26;99569.36;;;20.31;20.11
77897;BME280;67092;64.282;21.056;2023-03-03T08:34:51;99562.60;;;20.37;20.08
77897;BME280;67092;64.282;21.056;2023-03-03T08:37:17;99556.75;;;20.42;20.24
77897;BME280;67092;64.282;21.056;2023-03-03T08:39:43;99554.39;;;19.89;20.48
77897;BME280;67092;64.282;21.056;2023-03-03T08:42:08;99548.64;;;20.56;19.98
77897;BME280;67092;64.282;21.056;2023-03-03T08:44:34;99540.80;;;20.54;19.97
77897;BME280;67092;64.282;21.056;2023-03-03T08:47:00;99534.04;;;20.49;20.18
77897;BME280;67092;64.282;21.056;2023-03-03T08:49:25;99527.67;;;20.42;20.23
77897;BME280;67092;64.282;21.056;2023-03-03T08:51:51;99522.00;;;20.60;19.89
77897;BME280;67092;64.282;21.056;2023-03-03T08:54:16;99515.88;;;20.37;20.03
77897;BME280;67092;64.282;21.056;2023-03-03T08:56:42;99511.39;;;20.19;20.04
77897;BME280;67092;64.282;21.056;2023-03-03T08:59:08;99504.55;;;20.51;19.93
77897;BME280;67092;64.282;21.056;2023-03-03T09:01:34;99493.83;;;20.19;20.20
77897;BME280;67092;64.282;21.056;2023-03-03T09:03:59;99489.88;;;20.30;20.16
77897;BME280;67092;64.282;21.056;2023-03-03T09:06:25;99486.50;;;20.15;20.08
77897;BME280;67092;64.282;21.056;2023-03-03T09:08:50;99479.74;;;20.10;20.28
77897;BME280;67092;64.282;21.056;2023-03-03T09:11:23;99477.13;;;20.71;19.81
77897;BME280;67092;64.282;21.056;2023-03-03T09:13:42;99475.19;;;20.46;20.19
77897;BME280;67092;64.282;21.056;2023-03-03T09:16:13;99470.30;;;20.81;19.90
77897;BME280;67092;64.282;21.056;2023-03-03T09:18:36;99469.12;;;20.58;20.07
77897;BME280;67092;64.282;21.056;2023-03-03T09:20:59;99460.98;;;20.42;20.02
77897;BME280;67092;64.282;21.056;2023-03-03T09:23:30;99455.83;;;20.26;20.34
77897;BME280;67092;64.282;21.056;2023-03-03T09:25:50;99452.54;;;20.23;20.36
77897;BME280;67092;64.282;21.056;2023-03-03T09:28:22;99446.04;;;19.95;20.36
77897;BME280;67092;64.282;21.056;2023-03-03T09:30:46;99437.56;;;20.41;20.18
77897;BME280;67092;64.282;21.056;2023-03-03T09:33:23;99429.00;;;20.14;20.19
77897;BME280;67092;64.282;21.056;2023-03-03T09:35:35;99427.38;;;20.11;20.18
77897;BME280;67092;64.282;21.056;2023-03-03T09:37:58;99423.33;;;20.17;20.14
77897;BME280;67092;64.282;21.056;2023-03-03T09:40:38;99419.25;;;20.21;20.29
77897;BME280;67092;64.282;21.056;2023-03-03T09:42:58;99412.96;;;20.30;20.21
77897;BME280;67092;64.282;21.056;2023-03-03T09:45:26;99411.55;;;20.47;20.08
77897;BME280;67092;64.282;21.056;2023-03-03T09:50:14;99399.38;;;20.01;20.03
77897;BME280;67092;64.282;21.056;2023-03-03T09:52:38;99392.81;;;20.31;19.97
77897;BME280;67092;64.282;21.056;2023-03-03T09:55:09;99387.44;;;20.21;20.02
77897;BME280;67092;64.282;21.056;2023-03-03T09:57:28;99377.44;;;20.30;19.96
77897;BME280;67092;64.282;21.056;2023-03-03T10:00:04;99374.28;;;20.57;19.94
77897;BME280;67092;64.282;21.056;2023-03-03T10:02:28;99369.85;;;20.48;19.98
77897;BME280;67092;64.282;21.056;2023-03-03T10:04:54;99360.41;;;20.31;19.93
77897;BME280;67092;64.282;21.056;2023-03-03T10:07:19;99355.65;;;20.56;19.91
77897;BME280;67092;64.282;21.056;2023-03-03T10:09:45;99355.26;;;20.91;20.01
77897;BME280;67092;64.282;21.056;2023-03-03T10:12:02;99350.08;;;20.98;19.57
77897;BME280;67092;64.282;21.056;2023-03-03T10:17:01;99341.84;;;20.47;19.96
77897;BME280;67092;64.282;21.056;2023-03-03T10:19:25;99340.92;;;20.44;20.01
77897;BME280;67092;64.282;21.056;2023-03-03T10:21:45;99333.71;;;20.55;19.92
77897;BME280;67092;64.282;21.056;2023-03-03T10:24:17;99327.18;;;20.23;20.00
77897;BME280;67092;64.282;21.056;2023-03-03T10:26:47;99325.26;;;20.52;19.93
77897;BME280;67092;64.282;21.056;2023-03-03T10:29:06;99322.17;;;20.47;19.80
77897;BME280;67092;64.282;21.056;2023-03-03T10:31:32;99317.24;;;20.49;19.75
77897;BME280;67092;64.282;21.056;2023-03-03T10:33:54;99312.02;;;20.83;19.68
77897;BME280;67092;64.282;21.056;2023-03-03T10:36:27;99306.24;;;20.66;19.80
77897;BME280;67092;64.282;21.056;2023-03-03T10:38:45;99301.64;;;20.73;19.74
77897;BME280;67092;64.282;21.056;2023-03-03T10:41:16;99298.39;;;20.27;19.72
77897;BME280;67092;64.282;21.056;2023-03-03T10:43:41;99295.51;;;20.49;19.74
77897;BME280;67092;64.282;21.056;2023-03-03T10:46:09;99294.19;;;20.59;19.66
77897;BME280;67092;64.282;21.056;2023-03-03T10:48:32;99292.45;;;20.69;19.76
77897;BME280;67092;64.282;21.056;2023-03-03T10:50:53;99290.17;;;20.43;19.94
77897;BME280;67092;64.282;21.056;2023-03-03T10:53:21;99287.37;;;20.49;19.73
77897;BME280;67092;64.282;21.056;2023-03-03T10:55:44;99278.78;;;20.29;19.89
77897;BME280;67092;64.282;21.056;2023-03-03T10:58:16;99276.71;;;20.49;19.73
77897;BME280;67092;64.282;21.056;2023-03-03T11:00:34;99268.93;;;20.34;19.87
77897;BME280;67092;64.282;21.056;2023-03-03T11:05:28;99263.96;;;20.50;19.74
77897;BME280;67092;64.282;21.056;2023-03-03T11:07:50;99259.85;;;20.50;19.89
77897;BME280;67092;64.282;21.056;2023-03-03T11:10:22;99261.76;;;20.46;19.71
77897;BME280;67092;64.282;21.056;2023-03-03T11:12:48;99252.45;;;20.75;19.53
77897;BME280;67092;64.282;21.056;2023-03-03T11:15:21;99254.78;;;20.45;19.72
77897;BME280;67092;64.282;21.056;2023-03-03T11:17:37;99251.12;;;20.62;19.58
77897;BME280;67092;64.282;21.056;2023-03-03T11:20:02;99247.31;;;20.60;19.60
77897;BME280;67092;64.282;21.056;2023-03-03T11:22:31;99247.51;;;20.33;19.78
77897;BME280;67092;64.282;21.056;2023-03-03T11:24:54;99241.64;;;20.71;19.69
77897;BME280;67092;64.282;21.056;2023-03-03T11:27:28;99237.34;;;20.57;19.62
77897;BME280;67092;64.282;21.056;2023-03-03T11:29:50;99235.13;;;20.24;19.67
77897;BME280;67092;64.282;21.056;2023-03-03T11:32:15;99232.29;;;20.36;19.79
77897;BME280;67092;64.282;21.056;2023-03-03T11:34:40;99225.75;;;20.48;19.65
77897;BME280;67092;64.282;21.056;2023-03-03T11:36:59;99227.28;;;19.95;19.85
77897;BME280;67092;64.282;21.056;2023-03-03T11:39:23;99222.86;;;20.31;19.77
77897;BME280;67092;64.282;21.056;2023-03-03T11:41:54;99216.31;;;20.48;19.63
77897;BME280;67092;64.282;21.056;2023-03-03T11:44:18;99211.24;;;20.75;19.40
77897;BME280;67092;64.282;21.056;2023-03-03T11:46:41;99208.41;;;20.53;19.63
77897;BME280;67092;64.282;21.056;2023-03-03T11:49:05;99207.58;;;20.23;19.84
77897;BME280;67092;64.282;21.056;2023-03-03T11:51:41;99200.70;;;20.38;19.55
77897;BME280;67092;64.282;21.056;2023-03-03T11:53:58;99192.88;;;20.66;19.69
77897;BME280;67092;64.282;21.056;2023-03-03T11:56:22;99190.70;;;20.26;19.80
77897;BME280;67092;64.282;21.056;2023-03-03T11:58:54;99189.52;;;20.64;19.72
77897;BME280;67092;64.282;21.056;2023-03-03T12:01:17;99186.43;;;20.36;19.72
77897;BME280;67092;64.282;21.056;2023-03-03T12:03:38;99185.32;;;20.48;19.63
77897;BME280;67092;64.282;21.056;2023-03-03T12:06:11;99180.11;;;20.98;19.42
77897;BME280;67092;64.282;21.056;2023-03-03T12:08:38;99180.33;;;20.64;19.51
77897;BME280;67092;64.282;21.056;2023-03-03T12:10:58;99178.69;;;20.47;19.65
77897;BME280;67092;64.282;21.056;2023-03-03T12:13:24;99175.54;;;20.26;19.78
77897;BME280;67092;64.282;21.056;2023-03-03T12:15:50;99175.53;;;20.03;19.76
77897;BME280;67092;64.282;21.056;2023-03-03T12:18:25;99172.57;;;20.50;19.62
77897;BME280;67092;64.282;21.056;2023-03-03T12:20:42;99174.04;;;20.96;19.43
77897;BME280;67092;64.282;21.056;2023-03-03T12:23:12;99172.80;;;20.90;19.46
77897;BME280;67092;64.282;21.056;2023-03-03T12:25:33;99168.39;;;20.68;19.65
77897;BME280;67092;64.282;21.056;2023-03-03T12:27:59;99163.27;;;20.37;19.88
77897;BME280;67092;64.282;21.056;2023-03-03T12:30:27;99160.25;;;20.30;19.77
77897;BME280;67092;64.282;21.056;2023-03-03T12:33:00;99160.52;;;20.28;19.79
77897;BME280;67092;64.282;21.056;2023-03-03T12:35:15;99159.37;;;20.20;19.82
77897;BME280;67092;64.282;21.056;2023-03-03T12:37:46;99156.04;;;19.83;19.93
77897;BME280;67092;64.282;21.056;2023-03-03T12:40:07;99151.37;;;20.23;19.83
77897;BME280;67092;64.282;21.056;2023-03-03T12:42:37;99148.87;;;20.35;19.72
77897;BME280;67092;64.282;21.056;2023-03-03T12:45:00;99146.30;;;20.75;19.58
77897;BME280;67092;64.282;21.056;2023-03-03T12:47:23;99143.46;;;20.26;19.79
77897;BME280;67092;64.282;21.056;2023-03-03T12:49:54;99142.53;;;20.69;19.65